Time;durP1;ratioP1;P1;durP2;ratioP2;P2;SDS_P1;SDS_P2;PMS_P1;PMS_P2;Temp;Humidity;BMP_temperature;BMP_pressure;BME280_temperature;BME280_humidity;BME280_pressure;Samples;Min_cycle;Max_cycle;Signal;HPM_P1;HPM_P2
2021/04/30 00:00:56;;;;;;;21.23;10.27;;;10.40;72.60;;;9.89;63.17;100005.72;4992397;28;20772;-81
2021/04/30 00:03:23;;;;;;;15.70;10.50;;;10.40;72.70;;;9.85;63.36;100004.44;4995459;28;20648;-81
2021/04/30 00:05:50;;;;;;;18.13;10.27;;;10.40;72.80;;;9.79;63.42;100004.16;4995242;28;20121;-81
2021/04/30 00:08:17;;;;;;;17.80;10.48;;;10.40;72.90;;;9.81;63.43;99989.56;4995716;28;20070;-81
2021/04/30 00:13:45;;;;;;;22.33;10.90;;;10.40;73.10;;;9.78;63.46;100005.19;5353453;23;19921;-76
2021/04/30 00:16:23;;;;;;;18.60;10.38;;;10.30;73.00;;;9.77;63.59;100011.66;5014364;28;20053;-78
2021/04/30 00:19:01;;;;;;;20.50;10.40;;;10.30;73.10;;;9.75;63.86;100008.31;5028157;28;20053;-78
2021/04/30 00:21:39;;;;;;;22.55;10.57;;;10.30;73.50;;;9.74;64.16;100014.75;5028338;28;20046;-77
2021/04/30 00:24:16;;;;;;;22.20;11.32;;;10.30;73.60;;;9.71;64.55;100012.44;5011442;28;20045;-77
2021/04/30 00:27:00;;;;;;;22.13;12.05;;;10.30;73.60;;;9.80;63.90;100005.00;5011860;28;20518;-77
2021/04/30 00:29:35;;;;;;;19.77;10.75;;;10.30;73.50;;;9.78;64.02;100005.19;5011817;28;20034;-77
2021/04/30 00:32:36;;;;;;;21.20;11.68;;;10.30;73.70;;;9.74;64.03;100000.34;5011606;28;20045;-77
2021/04/30 00:35:12;;;;;;;17.63;10.98;;;10.30;73.60;;;9.72;64.52;99996.97;5011579;28;20513;-78
2021/04/30 00:37:50;;;;;;;24.08;10.88;;;10.30;74.10;;;9.70;64.15;100010.75;5011695;28;20049;-77
2021/04/30 00:40:35;;;;;;;24.10;11.68;;;10.30;74.10;;;9.73;64.76;100004.94;5011435;28;20042;-77
2021/04/30 00:43:13;;;;;;;21.17;11.85;;;10.30;74.20;;;9.72;64.54;100005.94;5011042;28;20049;-77
2021/04/30 00:45:52;;;;;;;23.30;12.05;;;10.30;74.40;;;9.69;64.60;100016.34;5011415;28;20066;-77
2021/04/30 00:51:24;;;;;;;27.02;13.02;;;10.20;74.60;;;9.70;64.75;100016.19;5011160;28;20132;-77
2021/04/30 00:54:08;;;;;;;22.35;11.68;;;10.20;74.70;;;9.66;65.33;100017.59;5010876;28;20100;-77
2021/04/30 00:56:54;;;;;;;22.65;12.80;;;10.20;75.00;;;9.61;65.58;100022.75;5028926;28;20144;-77
2021/04/30 00:59:32;;;;;;;25.23;13.45;;;10.20;75.20;;;9.60;65.45;100018.38;5030951;28;20048;-77
2021/04/30 01:02:41;;;;;;;23.45;12.90;;;10.20;75.10;;;9.58;65.95;100023.16;5030501;28;20111;-77
2021/04/30 01:05:38;;;;;;;27.45;15.40;;;10.20;75.20;;;9.58;66.17;100028.59;5012802;28;20670;-77
2021/04/30 01:08:33;;;;;;;22.50;12.23;;;10.20;75.60;;;9.55;65.87;100031.66;5030800;28;20049;-77
2021/04/30 01:11:30;;;;;;;24.98;12.85;;;10.10;75.70;;;9.54;65.94;100035.44;5030752;28;20041;-77
2021/04/30 01:14:09;;;;;;;22.10;12.23;;;10.10;75.70;;;9.57;65.66;100037.75;5029617;28;20037;-78
2021/04/30 01:16:47;;;;;;;21.52;13.30;;;10.10;75.50;;;9.55;65.67;100039.81;5030527;28;20053;-77
2021/04/30 01:19:38;;;;;;;23.58;12.65;;;10.10;75.70;;;9.48;66.01;100037.03;5029273;28;20053;-77
2021/04/30 01:22:39;;;;;;;24.20;13.20;;;10.00;75.70;;;9.46;66.19;100047.25;5030067;28;20131;-77
2021/04/30 01:25:16;;;;;;;23.50;12.80;;;10.10;75.80;;;9.47;65.85;100048.91;5030357;28;20095;-77
2021/04/30 01:27:49;;;;;;;24.67;12.88;;;10.00;75.70;;;9.47;65.76;100046.19;5030398;28;20104;-77
2021/04/30 01:30:31;;;;;;;22.10;12.25;;;10.00;75.80;;;9.44;66.14;100049.28;5028970;28;20053;-77
2021/04/30 01:33:33;;;;;;;25.25;13.02;;;10.10;76.10;;;9.47;66.26;100048.06;5029991;28;20351;-77
2021/04/30 01:36:13;;;;;;;24.38;12.93;;;10.10;75.80;;;9.43;66.52;100054.94;5030307;28;20460;-77
2021/04/30 01:39:10;;;;;;;22.77;12.82;;;10.10;75.90;;;9.48;66.05;100047.03;5028854;28;20052;-77
2021/04/30 01:41:50;;;;;;;27.58;13.18;;;10.10;75.80;;;9.51;66.26;100043.94;4991150;28;20596;-78
2021/04/30 01:44:28;;;;;;;23.80;12.85;;;10.00;76.00;;;9.44;66.62;100053.88;5029900;28;20421;-77
2021/04/30 01:50:09;;;;;;;22.45;13.15;;;10.00;76.40;;;9.41;67.08;100062.41;4988898;28;20057;-79
2021/04/30 01:52:46;;;;;;;24.33;14.35;;;10.00;76.60;;;9.43;66.45;100068.50;4990476;28;20498;-79
2021/04/30 01:55:27;;;;;;;27.17;14.77;;;10.00;76.50;;;9.43;66.50;100071.22;4990534;28;20377;-78
2021/04/30 01:58:11;;;;;;;23.60;14.50;;;10.00;76.60;;;9.43;67.12;100063.06;4991011;28;20042;-78
2021/04/30 02:01:15;;;;;;;30.98;14.27;;;10.00;76.80;;;9.47;66.69;100064.38;4991107;28;20112;-78
2021/04/30 02:04:00;;;;;;;32.17;14.80;;;10.00;77.10;;;9.45;67.18;100066.44;4990218;28;20116;-78
2021/04/30 02:07:04;;;;;;;26.00;15.02;;;10.00;77.20;;;9.39;67.67;100071.59;4990326;28;20137;-79
2021/04/30 02:09:47;;;;;;;28.15;14.75;;;10.00;77.40;;;9.39;67.94;100073.47;4988852;28;20522;-78
2021/04/30 02:12:26;;;;;;;28.05;15.27;;;10.00;77.50;;;9.36;67.92;100074.66;4990181;28;20050;-78
2021/04/30 02:15:10;;;;;;;29.42;15.10;;;10.30;77.80;;;9.40;67.45;100075.13;4990482;28;20402;-78
2021/04/30 02:18:01;;;;;;;31.30;14.90;;;10.00;77.50;;;9.36;67.85;100071.94;4989524;28;20140;-78
2021/04/30 02:21:04;;;;;;;25.88;14.50;;;10.00;77.50;;;9.36;67.69;100071.94;4990387;28;20073;-78
2021/04/30 02:23:51;;;;;;;25.48;14.35;;;10.00;77.70;;;9.35;67.89;100072.16;4990072;28;20062;-78
2021/04/30 02:26:40;;;;;;;26.58;15.00;;;10.00;77.70;;;9.35;68.29;100077.59;4989471;28;20057;-78
2021/04/30 02:29:16;;;;;;;26.38;14.30;;;10.00;77.60;;;9.33;68.21;100075.06;4989934;28;20494;-78
2021/04/30 02:32:00;;;;;;;25.58;13.95;;;10.00;77.60;;;9.36;67.68;100065.69;4989989;28;20046;-78
2021/04/30 02:34:49;;;;;;;28.33;13.82;;;10.00;77.60;;;9.39;67.65;100071.59;4989960;28;20050;-78
2021/04/30 02:37:36;;;;;;;24.98;13.50;;;10.00;77.70;;;9.32;67.81;100076.06;4989573;28;20074;-78
2021/04/30 02:40:38;;;;;;;22.35;12.05;;;10.00;77.90;;;9.37;67.64;100079.06;4988388;28;20058;-78
2021/04/30 02:43:27;;;;;;;30.30;12.07;;;10.00;77.60;;;9.39;67.39;100085.16;4989526;28;20100;-78
2021/04/30 02:46:17;;;;;;;19.02;11.30;;;10.00;77.60;;;9.38;67.76;100078.03;4989795;28;20057;-78
2021/04/30 02:49:45;;;;;;;21.33;11.07;;;10.00;77.70;;;9.31;68.09;100081.69;4989440;28;20410;-79
2021/04/30 02:52:29;;;;;;;18.75;10.52;;;9.90;77.60;;;9.31;67.66;100081.69;4988500;28;20062;-78
2021/04/30 02:55:15;;;;;;;18.80;10.27;;;9.90;77.50;;;9.33;67.26;100085.91;4989176;28;20062;-79
2021/04/30 03:01:01;;;;;;;21.15;11.10;;;9.90;77.70;;;9.27;67.80;100074.94;4988295;28;20812;-79
2021/04/30 03:03:37;;;;;;;19.77;10.10;;;9.90;77.50;;;9.24;67.76;100072.63;4989256;28;20057;-79
2021/04/30 03:06:22;;;;;;;19.42;10.55;;;9.80;77.60;;;9.19;68.01;100073.16;4989333;28;20085;-79
2021/04/30 03:09:04;;;;;;;19.65;11.25;;;9.90;77.70;;;9.19;67.87;100070.44;4989471;28;20688;-79
2021/04/30 03:11:42;;;;;;;22.48;12.18;;;9.90;77.80;;;9.16;67.88;100079.00;4989254;28;20078;-78
2021/04/30 03:14:22;;;;;;;22.42;12.05;;;9.90;77.80;;;9.20;68.21;100083.00;4989069;28;20042;-79
2021/04/30 03:17:10;;;;;;;22.83;11.32;;;9.80;77.90;;;9.19;68.07;100082.19;4989139;28;20034;-79
2021/04/30 03:19:53;;;;;;;21.67;11.55;;;9.90;78.10;;;9.22;68.64;100085.56;4989260;28;20052;-79
2021/04/30 03:22:28;;;;;;;18.80;11.27;;;9.80;78.10;;;9.16;68.20;100084.41;4988911;28;20418;-79
2021/04/30 03:25:11;;;;;;;22.20;11.18;;;9.80;78.20;;;9.13;69.06;100087.50;4989273;28;20084;-79
2021/04/30 03:27:55;;;;;;;20.23;10.63;;;9.80;78.30;;;9.14;68.24;100086.47;4989090;28;20042;-79
2021/04/30 03:30:44;;;;;;;23.45;10.57;;;9.80;78.30;;;9.17;68.49;100086.09;4988985;28;20050;-79
2021/04/30 03:33:46;;;;;;;18.65;9.98;;;9.80;78.30;;;9.17;68.60;100086.09;4988745;28;20081;-79
2021/04/30 03:36:26;;;;;;;21.75;11.32;;;9.80;78.30;;;9.17;68.69;100088.81;4983966;28;20473;-79
2021/04/30 03:39:02;;;;;;;22.60;11.32;;;9.80;78.60;;;9.23;68.50;100084.50;5007907;28;20597;-79
2021/04/30 03:45:01;;;;;;;25.33;11.38;;;9.90;78.80;;;9.17;68.40;100086.09;4992704;28;20113;-78
2021/04/30 03:47:47;;;;;;;24.98;11.85;;;9.80;78.60;;;9.15;68.85;100088.16;4982720;28;20128;-79
2021/04/30 03:50:43;;;;;;;23.33;11.52;;;9.70;78.70;;;9.12;68.65;100093.94;4992651;28;20058;-78
2021/04/30 03:53:23;;;;;;;22.60;11.82;;;9.70;78.90;;;9.16;68.46;100095.28;4992245;28;20062;-78
2021/04/30 03:56:02;;;;;;;20.10;12.27;;;9.70;78.40;;;9.18;68.41;100093.22;4992628;28;20062;-78
2021/04/30 03:58:34;;;;;;;22.92;11.98;;;9.70;78.70;;;9.14;68.78;100092.75;4992532;28;20046;-78
2021/04/30 04:04:27;;;;;;;21.80;12.52;;;9.70;79.00;;;9.14;68.63;100102.78;4990124;28;20141;-79
2021/04/30 04:07:04;;;;;;;24.30;12.43;;;9.70;78.90;;;9.13;69.07;100101.06;4992404;28;20097;-78
2021/04/30 04:10:00;;;;;;;25.35;12.35;;;9.70;79.00;;;9.13;69.14;100104.63;4992361;28;20104;-79
2021/04/30 04:12:32;;;;;;;23.98;12.73;;;9.70;79.10;;;9.19;68.74;100114.75;4992171;28;20050;-79
2021/04/30 04:18:17;;;;;;;22.05;13.10;;;9.70;79.00;;;9.10;68.80;100131.28;4969353;28;20050;-77
2021/04/30 04:20:55;;;;;;;24.65;14.05;;;9.70;78.90;;;9.04;69.24;100132.03;4992158;28;20054;-78
2021/04/30 04:23:31;;;;;;;25.52;14.48;;;9.70;79.20;;;9.04;69.00;100127.44;4990269;28;20133;-78
2021/04/30 04:26:14;;;;;;;26.58;14.38;;;9.70;79.40;;;9.02;69.96;100123.22;4990662;28;20457;-79
2021/04/30 04:28:52;;;;;;;23.70;14.73;;;9.70;79.70;;;9.08;69.31;100122.50;4991950;28;20053;-78
2021/04/30 04:31:30;;;;;;;25.80;14.55;;;9.60;79.60;;;9.00;69.33;100131.56;4991972;28;20061;-78
2021/04/30 04:34:32;;;;;;;24.25;14.65;;;9.60;79.70;;;9.03;70.15;100125.78;4991717;28;20070;-79
2021/04/30 04:37:19;;;;;;;28.60;15.05;;;9.60;79.90;;;8.98;70.35;100123.59;4991859;28;20141;-78
2021/04/30 04:40:18;;;;;;;26.88;15.15;;;9.60;80.00;;;9.02;70.28;100125.94;4991826;28;20050;-78
2021/04/30 04:43:02;;;;;;;26.45;15.55;;;9.60;80.40;;;8.97;70.06;100111.06;4991497;28;20065;-78
2021/04/30 04:45:34;;;;;;;31.63;16.52;;;9.60;80.50;;;9.00;70.26;100115.28;4991861;28;20414;-78
2021/04/30 04:48:12;;;;;;;26.33;15.88;;;9.60;80.70;;;9.00;70.26;100118.84;4990563;28;20042;-81
2021/04/30 04:50:47;;;;;;;31.92;16.42;;;9.60;80.80;;;9.02;70.11;100125.94;4991645;28;20560;-81
2021/04/30 04:53:32;;;;;;;33.40;17.63;;;9.60;80.70;;;8.96;70.90;100122.94;4991289;28;20050;-77
2021/04/30 04:56:11;;;;;;;36.47;17.48;;;9.60;81.00;;;8.97;70.97;100119.19;4991482;28;20426;-77
2021/04/30 04:58:52;;;;;;;30.85;19.15;;;9.60;81.00;;;9.02;70.89;100134.91;4990883;28;20047;-77
2021/04/30 05:01:27;;;;;;;;;;;9.60;80.90;;;9.04;70.97;100132.03;4994024;28;20054;-78
2021/04/30 05:04:01;;;;;;;38.13;19.50;;;9.60;81.10;;;9.04;71.12;100132.03;4976990;28;19972;-77
2021/04/30 05:06:36;;;;;;;40.65;20.75;;;9.60;81.20;;;9.03;70.76;100127.66;4991287;28;20050;-78
2021/04/30 05:09:14;;;;;;;41.28;21.52;;;9.60;81.20;;;9.03;70.62;100127.66;4990844;28;20418;-76
2021/04/30 05:11:53;;;;;;;41.20;21.05;;;9.60;81.20;;;9.00;70.75;100135.13;4991252;28;20058;-76
2021/04/30 05:14:29;;;;;;;43.00;21.35;;;9.60;81.40;;;9.04;70.69;100142.88;4991025;28;20126;-78
2021/04/30 05:17:07;;;;;;;36.20;21.45;;;9.60;81.30;;;9.01;71.14;100144.13;4991280;28;20097;-77
2021/04/30 05:19:40;;;;;;;42.85;21.95;;;9.60;81.40;;;8.97;71.08;100145.50;4991095;28;20124;-78
2021/04/30 05:22:17;;;;;;;40.40;22.35;;;9.60;81.40;;;8.99;70.91;100144.28;4991349;28;20054;-77
2021/04/30 05:24:55;;;;;;;50.53;22.77;;;9.60;81.60;;;8.99;71.61;100141.56;4982114;28;20507;-78
2021/04/30 05:27:39;;;;;;;44.28;22.75;;;9.60;81.70;;;8.97;71.61;100145.50;4976095;28;20075;-78
2021/04/30 05:30:30;;;;;;;39.25;22.48;;;9.60;81.60;;;8.99;71.75;100148.88;4987127;28;20050;-78
2021/04/30 05:33:08;;;;;;;49.08;22.35;;;9.60;81.80;;;9.07;71.02;100150.69;4990986;28;20057;-78
2021/04/30 05:35:55;;;;;;;46.63;22.60;;;9.60;81.80;;;9.05;71.60;100158.16;4990870;28;20078;-77
2021/04/30 05:38:49;;;;;;;44.92;24.17;;;9.70;82.20;;;9.02;71.75;100155.81;4988244;28;20069;-77
2021/04/30 05:41:47;;;;;;;46.67;23.42;;;9.60;82.10;;;8.99;71.98;100160.56;5005689;28;20578;-77
2021/04/30 05:44:32;;;;;;;56.83;25.10;;;9.60;82.00;;;8.95;71.38;100159.25;4984659;28;20200;-77
2021/04/30 05:54:24;;;;;;;53.35;24.45;;;9.60;82.40;;;9.00;72.22;100153.25;4847756;29;20305;-77
2021/04/30 05:57:02;;;;;;;45.33;23.95;;;9.60;82.40;;;8.97;72.16;100149.06;4865336;29;20485;-77
2021/04/30 05:59:40;;;;;;;51.90;25.65;;;9.60;82.30;;;8.96;72.63;100149.22;4860277;29;20064;-78
2021/04/30 06:02:16;;;;;;;58.10;26.23;;;9.60;82.60;;;8.94;72.42;100156.72;4864935;29;20097;-77
2021/04/30 06:04:51;;;;;;;63.72;27.88;;;9.60;82.60;;;8.92;72.66;100156.91;4854536;29;20161;-77
2021/04/30 06:07:30;;;;;;;55.05;27.05;;;9.60;82.70;;;8.97;72.21;100167.22;4854430;29;20065;-78
2021/04/30 06:10:09;;;;;;;55.90;29.05;;;9.60;82.70;;;9.01;72.26;100171.25;4854185;29;20469;-77
2021/04/30 06:12:44;;;;;;;50.35;26.02;;;9.60;82.80;;;9.01;72.36;100171.25;4854133;29;20085;-84
2021/04/30 06:15:22;;;;;;;60.33;26.13;;;9.60;82.90;;;8.99;72.32;100174.16;4860015;29;20418;-86
2021/04/30 06:17:57;;;;;;;61.47;27.38;;;9.60;82.90;;;8.99;72.74;100170.59;4854447;29;20053;-86
2021/04/30 06:20:35;;;;;;;52.90;27.27;;;9.60;82.90;;;8.96;73.07;100160.94;4854406;29;20065;-87
2021/04/30 06:23:23;;;;;;;55.30;26.45;;;9.60;83.00;;;8.92;73.00;100159.63;4853611;29;20065;-88
2021/04/30 06:26:02;;;;;;;51.92;25.50;;;9.60;83.20;;;8.97;73.08;100165.34;4877232;28;20086;-82
2021/04/30 06:28:37;;;;;;;54.28;25.27;;;9.60;83.00;;;8.96;73.35;100171.78;4969525;28;20634;-84
2021/04/30 06:31:11;;;;;;;44.45;25.67;;;9.60;83.10;;;8.99;73.21;100166.00;4970153;28;20051;-82
2021/04/30 06:33:49;;;;;;;47.85;25.23;;;9.60;83.20;;;9.04;73.26;100170.03;4969799;28;20137;-77
2021/04/30 06:36:27;;;;;;;48.63;23.80;;;9.60;83.10;;;9.03;73.00;100176.50;4973572;28;20520;-81
2021/04/30 06:39:07;;;;;;;47.72;22.45;;;9.60;83.30;;;8.97;72.94;100178.91;4988802;28;20041;-83
2021/04/30 06:41:47;;;;;;;47.83;24.35;;;9.60;83.00;;;8.99;72.86;100182.28;4989156;28;20057;-79
2021/04/30 06:44:25;;;;;;;40.92;22.75;;;9.70;83.00;;;9.09;72.97;100182.03;4985713;28;20054;-77
2021/04/30 06:47:04;;;;;;;45.30;23.67;;;9.70;83.00;;;9.07;72.76;100177.81;4969885;28;20057;-77
2021/04/30 06:49:42;;;;;;;47.22;23.95;;;9.70;83.20;;;9.02;73.41;100181.06;4969582;28;20061;-78
2021/04/30 06:52:20;;;;;;;51.20;24.17;;;9.70;83.30;;;8.99;73.29;100176.84;4969751;28;20047;-77
2021/04/30 06:55:03;;;;;;;63.92;26.70;;;9.70;83.20;;;9.03;73.31;100182.78;4974859;28;20573;-77
2021/04/30 06:57:41;;;;;;;57.05;27.27;;;9.70;83.50;;;9.07;73.40;100185.97;4989173;28;20053;-77
2021/04/30 07:00:20;;;;;;;56.97;28.90;;;9.70;83.40;;;9.07;73.91;100194.09;4979659;28;20521;-77
2021/04/30 07:02:58;;;;;;;55.20;26.77;;;9.70;83.50;;;9.07;73.98;100185.97;4979844;28;20046;-77
2021/04/30 07:05:36;;;;;;;59.83;28.92;;;9.80;83.40;;;9.11;73.45;100190.00;4989168;28;20573;-77
2021/04/30 07:08:14;;;;;;;56.10;26.67;;;9.80;83.50;;;9.14;73.44;100186.94;4988225;28;20160;-77
2021/04/30 07:10:53;;;;;;;55.20;26.15;;;9.80;83.60;;;9.09;73.33;100192.06;4977783;28;20056;-78
2021/04/30 07:13:31;;;;;;;53.35;25.48;;;9.80;83.50;;;9.05;73.60;100196.16;4986808;28;20054;-77
2021/04/30 07:16:10;;;;;;;52.13;25.77;;;9.80;83.50;;;9.00;73.96;100200.28;4989225;28;20118;-77
2021/04/30 07:18:48;;;;;;;49.75;25.45;;;9.80;83.50;;;8.95;74.45;100202.69;4976544;28;20047;-76
2021/04/30 07:21:23;;;;;;;53.15;27.10;;;9.80;83.50;;;8.97;73.76;100205.22;4985899;28;20069;-77
2021/04/30 07:24:01;;;;;;;50.58;25.02;;;9.70;83.50;;;8.97;74.75;100199.78;4988024;28;20042;-82
2021/04/30 07:26:42;;;;;;;45.78;24.83;;;9.70;83.90;;;9.03;74.48;100199.06;4969776;28;20766;-81
2021/04/30 07:29:20;;;;;;;54.10;27.33;;;9.80;83.90;;;9.03;74.02;100199.06;4977597;28;20050;-81
2021/04/30 07:31:58;;;;;;;57.35;27.40;;;9.80;83.70;;;9.07;73.74;100194.09;4967938;28;20138;-81
2021/04/30 07:34:36;;;;;;;53.05;27.23;;;9.90;83.90;;;9.07;74.33;100207.69;4975701;28;20520;-81
2021/04/30 07:37:11;;;;;;;55.53;29.08;;;9.80;83.80;;;9.15;73.85;100210.31;4978288;28;20585;-81
2021/04/30 07:39:49;;;;;;;50.38;25.15;;;9.80;83.80;;;9.13;73.52;100205.06;4979001;28;20425;-81
2021/04/30 07:42:28;;;;;;;59.38;27.25;;;9.80;83.70;;;9.15;73.89;100215.75;4978508;28;20050;-81
2021/04/30 07:45:04;;;;;;;49.05;26.45;;;9.80;83.80;;;9.10;73.83;100210.00;4979640;28;20042;-81
2021/04/30 07:50:17;;;;;;;55.47;27.73;;;9.80;83.70;;;9.12;74.25;100216.09;4964003;28;20137;-76
2021/04/30 07:52:56;;;;;;;50.08;27.95;;;9.80;83.80;;;9.13;74.43;100215.09;4966199;28;20562;-75
2021/04/30 07:55:35;;;;;;;55.47;28.58;;;9.80;83.80;;;9.17;74.65;100217.25;4969057;28;20739;-75
2021/04/30 07:58:14;;;;;;;49.30;27.77;;;9.90;83.90;;;9.13;74.45;100226.78;4966596;28;20093;-74
2021/04/30 08:00:52;;;;;;;55.20;27.52;;;9.90;83.80;;;9.14;74.29;100223.06;4983574;28;20057;-74
2021/04/30 08:03:30;;;;;;;51.35;29.40;;;9.90;83.70;;;9.10;74.51;100224.47;4984873;28;20051;-75
2021/04/30 08:06:08;;;;;;;61.53;30.42;;;9.90;83.50;;;9.12;74.08;100226.97;4983235;28;20039;-75
2021/04/30 08:08:44;;;;;;;52.20;29.10;;;9.90;83.50;;;9.12;74.58;100225.13;4982891;28;20034;-75
2021/04/30 08:11:22;;;;;;;57.75;29.67;;;10.00;83.50;;;9.13;75.02;100226.78;4967301;28;20074;-75
2021/04/30 08:14:07;;;;;;;54.97;29.88;;;10.00;83.50;;;9.14;74.77;100225.78;4983147;28;20043;-75
2021/04/30 08:16:45;;;;;;;61.65;31.40;;;10.00;83.50;;;9.15;74.13;100219.31;4965182;28;20046;-75
2021/04/30 08:19:24;;;;;;;59.03;29.90;;;10.10;83.20;;;9.18;74.54;100223.53;4988465;28;20039;-75
2021/04/30 08:22:03;;;;;;;61.42;30.25;;;10.10;83.20;;;9.21;74.28;100228.59;4973011;28;20551;-75
2021/04/30 08:24:43;;;;;;;63.67;30.90;;;10.10;83.00;;;9.18;74.15;100223.53;4971437;28;20038;-74
2021/04/30 08:27:21;;;;;;;57.42;31.58;;;10.10;82.80;;;9.16;74.61;100225.59;4982332;28;20050;-72
2021/04/30 08:30:00;;;;;;;57.13;30.85;;;10.10;82.90;;;9.14;74.10;100231.19;4987397;28;20050;-72
2021/04/30 08:32:38;;;;;;;65.40;32.92;;;10.10;82.70;;;9.17;74.65;100235.41;4991224;28;20042;-72
2021/04/30 08:35:14;;;;;;;57.63;31.92;;;10.10;82.70;;;9.24;73.80;100238.25;4983756;28;20058;-72
2021/04/30 08:37:49;;;;;;;58.95;32.45;;;10.10;82.90;;;9.22;74.39;100240.31;4986705;28;20038;-73
2021/04/30 08:40:29;;;;;;;65.53;31.63;;;10.10;82.70;;;9.19;74.30;100231.50;4985433;28;20177;-72
2021/04/30 08:43:07;;;;;;;68.22;32.28;;;10.10;82.60;;;9.16;74.56;100239.16;4981795;28;20735;-72
2021/04/30 08:45:51;;;;;;;68.18;32.63;;;10.20;82.50;;;9.19;74.85;100234.22;4979634;28;20069;-72
2021/04/30 08:48:29;;;;;;;66.78;33.50;;;10.20;82.60;;;9.20;74.10;100243.22;4992024;28;20045;-72
2021/04/30 08:54:13;;;;;;;68.40;34.53;;;10.20;82.80;;;9.26;74.26;100237.03;4975112;28;20057;-72
2021/04/30 08:57:05;;;;;;;62.22;33.75;;;10.20;82.70;;;9.30;74.55;100248.38;4982458;28;20042;-72
2021/04/30 08:59:41;;;;;;;65.78;34.95;;;10.20;82.70;;;9.22;74.21;100246.59;4989690;28;20081;-73
2021/04/30 09:02:23;;;;;;;65.60;35.33;;;10.30;82.40;;;9.13;75.09;100244.94;4990534;28;20525;-73
2021/04/30 09:05:01;;;;;;;74.22;34.72;;;10.30;82.40;;;9.17;75.03;100249.00;4990397;28;20042;-72
2021/04/30 09:07:46;;;;;;;69.95;33.90;;;10.30;82.20;;;9.25;74.69;100246.19;5004543;28;20349;-72
2021/04/30 09:10:22;;;;;;;67.53;34.30;;;10.40;82.20;;;9.24;74.59;100252.66;4986455;28;20045;-72
2021/04/30 09:13:13;;;;;;;80.03;36.17;;;10.40;81.80;;;9.31;74.26;100253.63;4989289;28;20049;-72
2021/04/30 09:16:05;;;;;;;74.55;35.65;;;10.40;81.90;;;9.37;74.32;100254.78;4989647;28;20050;-72
2021/04/30 09:18:45;;;;;;;69.53;36.00;;;10.40;81.80;;;9.44;74.01;100260.31;4988292;28;20041;-72
2021/04/30 09:21:23;;;;;;;74.55;35.50;;;10.40;82.10;;;9.46;73.99;100263.69;4989882;28;20054;-72
2021/04/30 09:24:01;;;;;;;71.07;36.53;;;10.50;81.90;;;9.49;73.39;100260.59;4972451;28;20057;-72
2021/04/30 09:26:40;;;;;;;70.38;35.42;;;10.50;81.60;;;9.50;73.54;100267.72;4990751;28;20061;-72
2021/04/30 09:29:19;;;;;;;71.85;36.40;;;10.50;81.40;;;9.48;73.60;100272.47;4990392;28;20146;-72
2021/04/30 09:31:57;;;;;;;72.70;34.85;;;10.50;81.30;;;9.49;73.32;100269.59;4988910;28;20053;-72
2021/04/30 09:34:34;;;;;;;67.43;33.75;;;10.50;81.20;;;9.54;73.29;100277.22;4987601;28;20375;-72
2021/04/30 09:37:20;;;;;;;69.53;34.75;;;10.50;81.20;;;9.55;73.15;100276.16;4988497;28;20508;-72
2021/04/30 09:40:06;;;;;;;68.75;33.75;;;10.50;81.30;;;9.58;72.67;100275.81;4988464;28;20042;-72
2021/04/30 09:42:40;;;;;;;63.80;33.20;;;10.50;81.40;;;9.60;72.87;100281.91;4988777;28;20046;-72
2021/04/30 09:45:16;;;;;;;71.40;34.90;;;10.40;81.50;;;9.59;73.08;100272.91;4989768;28;20085;-75
2021/04/30 09:47:58;;;;;;;68.75;33.72;;;10.40;81.70;;;9.55;72.43;100268.84;4989111;28;20050;-75
2021/04/30 09:50:34;;;;;;;67.65;33.15;;;10.40;81.00;;;9.54;72.70;100271.78;4978574;28;20439;-74
2021/04/30 09:53:16;;;;;;;66.70;33.08;;;10.40;81.10;;;9.53;72.77;100270.06;4971434;28;20043;-74
2021/04/30 09:55:57;;;;;;;67.25;33.33;;;10.40;81.20;;;9.48;72.24;100272.47;4989193;28;20042;-74
2021/04/30 09:58:46;;;;;;;63.35;32.30;;;10.40;80.80;;;9.52;72.50;100279.22;4988241;28;20053;-74
2021/04/30 10:01:31;;;;;;;64.10;32.95;;;10.40;81.20;;;9.57;72.07;100276.81;4989303;28;20046;-74
2021/04/30 10:04:09;;;;;;;65.10;32.45;;;10.40;81.00;;;9.56;72.20;100280.59;4989387;28;20054;-75
2021/04/30 10:06:56;;;;;;;58.15;30.98;;;10.40;81.10;;;9.53;72.46;100283.66;4989660;28;20046;-76
2021/04/30 10:09:35;;;;;;;63.03;33.50;;;10.50;81.10;;;9.51;72.30;100277.56;4980955;28;20429;-77
2021/04/30 10:12:27;;;;;;;63.00;31.40;;;10.50;80.90;;;9.49;72.39;100279.63;4955007;28;20054;-77
2021/04/30 10:15:06;;;;;;;62.17;33.10;;;10.50;80.90;;;9.48;72.36;100284.22;4985780;28;20082;-78
2021/04/30 10:17:45;;;;;;;67.90;33.20;;;10.50;81.00;;;9.43;72.49;100283.91;4989716;28;20052;-78
2021/04/30 10:20:24;;;;;;;67.32;31.80;;;10.50;80.90;;;9.48;72.75;100277.91;4987195;28;20049;-77
2021/04/30 10:23:14;;;;;;;70.75;34.58;;;10.50;80.80;;;9.54;73.00;100277.22;4989646;28;20057;-77
2021/04/30 10:25:54;;;;;;;71.85;32.45;;;10.50;81.10;;;9.58;72.70;100281.25;4987656;28;20054;-77
2021/04/30 10:28:33;;;;;;;66.35;33.17;;;10.50;81.40;;;9.66;72.50;100281.16;4984356;28;20073;-77
2021/04/30 10:31:14;;;;;;;63.78;32.58;;;10.60;81.20;;;9.72;73.13;100282.28;4987313;28;20053;-77
2021/04/30 10:33:56;;;;;;;62.10;33.63;;;10.60;81.40;;;9.66;72.14;100283.03;4988707;28;20085;-77
2021/04/30 10:36:49;;;;;;;71.50;34.67;;;10.60;81.10;;;9.66;71.96;100283.03;4971572;28;20189;-77
2021/04/30 10:39:33;;;;;;;72.38;35.63;;;10.60;80.90;;;9.67;72.05;100285.56;4988720;28;20529;-77
2021/04/30 10:42:22;;;;;;;68.38;35.92;;;10.60;80.90;;;9.66;72.21;100280.31;4989057;28;20057;-77
2021/04/30 10:45:05;;;;;;;74.30;34.80;;;10.60;80.80;;;9.66;72.28;100281.16;4971061;28;20050;-77
2021/04/30 10:47:44;;;;;;;61.22;33.90;;;10.60;80.90;;;9.62;72.69;100273.56;4986125;28;20049;-78
2021/04/30 10:50:29;;;;;;;73.28;33.65;;;10.60;81.00;;;9.67;73.11;100271.13;4990449;28;20047;-77
2021/04/30 10:53:43;;;;;;;63.38;32.05;;;10.70;81.00;;;9.73;73.01;100264.97;4988534;28;20042;-77
2021/04/30 10:56:41;;;;;;;60.42;31.00;;;10.70;81.10;;;9.72;72.31;100268.69;4986874;28;20058;-77
2021/04/30 10:59:28;;;;;;;60.25;29.90;;;10.70;80.50;;;9.70;72.67;100268.03;4989112;28;20050;-77
2021/04/30 11:02:12;;;;;;;60.50;30.25;;;10.80;80.30;;;9.78;72.32;100268.78;4971518;28;20046;-77
2021/04/30 11:05:17;;;;;;;56.85;30.00;;;10.90;80.40;;;9.84;72.44;100263.66;4988597;28;20050;-77
2021/04/30 11:08:13;;;;;;;53.70;27.08;;;10.80;80.40;;;9.83;72.34;100259.25;4987341;28;20073;-78
2021/04/30 11:10:52;;;;;;;52.30;28.58;;;10.90;80.50;;;9.74;71.92;100262.03;4979311;28;20046;-77
2021/04/30 11:13:34;;;;;;;58.25;29.25;;;10.80;80.00;;;9.75;72.35;100268.34;4988417;28;20498;-77
2021/04/30 11:16:10;;;;;;;51.30;27.77;;;10.90;80.00;;;9.82;72.74;100263.81;4989008;28;20054;-77
2021/04/30 11:19:10;;;;;;;53.95;28.13;;;10.90;80.20;;;9.79;72.69;100267.78;4988874;28;20054;-77
2021/04/30 11:21:52;;;;;;;54.90;27.73;;;10.90;80.30;;;9.82;72.89;100265.72;4987917;28;20133;-76
2021/04/30 11:25:04;;;;;;;52.10;29.70;;;10.90;80.10;;;9.75;72.62;100255.59;4971035;28;20508;-77
2021/04/30 11:28:05;;;;;;;48.55;28.17;;;11.00;80.00;;;9.81;73.12;100256.72;4909218;29;20070;-77
2021/04/30 11:30:44;;;;;;;57.05;31.23;;;10.90;80.10;;;9.86;73.06;100253.44;4910629;29;20056;-77
2021/04/30 11:33:25;;;;;;;50.05;29.33;;;11.00;80.10;;;9.85;73.23;100251.75;4975621;28;21463;-77
2021/04/30 11:36:15;;;;;;;57.40;29.67;;;11.00;80.20;;;9.90;73.04;100249.31;4984979;28;20438;-77
2021/04/30 11:38:56;;;;;;;56.37;31.07;;;11.00;80.30;;;9.95;73.05;100244.16;4986862;28;20470;-77
2021/04/30 11:41:31;;;;;;;57.42;30.20;;;11.00;80.30;;;9.89;73.28;100244.91;4977768;28;20325;-76
2021/04/30 11:44:10;;;;;;;54.72;30.13;;;11.10;80.30;;;9.91;73.03;100248.28;4980731;28;20086;-75
2021/04/30 11:46:59;;;;;;;56.88;30.98;;;11.10;80.10;;;9.89;73.06;100247.63;4985362;28;20077;-76